sensor_id;sensor_type;location;lat;lon;timestamp;temperature;humidity
75380;HTU21D;65641;44.714;37.756;2023-09-18T00:00:08;18.41;59.03
75380;HTU21D;65641;44.714;37.756;2023-09-18T00:01:15;18.43;59.04
75380;HTU21D;65641;44.714;37.756;2023-09-18T00:02:18;18.43;59.05
75380;HTU21D;65641;44.714;37.756;2023-09-18T00:03:22;18.43;59.03
75380;HTU21D;65641;44.714;37.756;2023-09-18T00:04:27;18.42;59.04
75380;HTU21D;65641;44.714;37.756;2023-09-18T00:05:31;18.42;59.07
75380;HTU21D;65641;44.714;37.756;2023-09-18T00:06:34;18.43;58.91
75380;HTU21D;65641;44.714;37.756;2023-09-18T00:07:38;18.42;59.03
75380;HTU21D;65641;44.714;37.756;2023-09-18T00:08:41;18.41;59.09
75380;HTU21D;65641;44.714;37.756;2023-09-18T00:09:44;18.40;58.99
75380;HTU21D;65641;44.714;37.756;2023-09-18T00:10:50;18.40;59.02
75380;HTU21D;65641;44.714;37.756;2023-09-18T00:11:54;18.40;58.92
75380;HTU21D;65641;44.714;37.756;2023-09-18T00:12:57;18.39;58.96
75380;HTU21D;65641;44.714;37.756;2023-09-18T00:14:01;18.39;58.96
75380;HTU21D;65641;44.714;37.756;2023-09-18T00:15:06;18.38;59.12
75380;HTU21D;65641;44.714;37.756;2023-09-18T00:16:13;18.38;59.06
75380;HTU21D;65641;44.714;37.756;2023-09-18T00:17:16;18.36;59.17
75380;HTU21D;65641;44.714;37.756;2023-09-18T00:18:20;18.35;59.26
75380;HTU21D;65641;44.714;37.756;2023-09-18T00:19:24;18.36;59.12
75380;HTU21D;65641;44.714;37.756;2023-09-18T00:20:28;18.36;59.22
75380;HTU21D;65641;44.714;37.756;2023-09-18T00:21:31;18.34;59.20
75380;HTU21D;65641;44.714;37.756;2023-09-18T00:22:34;18.33;59.17
75380;HTU21D;65641;44.714;37.756;2023-09-18T00:23:38;18.33;59.16
75380;HTU21D;65641;44.714;37.756;2023-09-18T00:24:41;18.33;59.21
75380;HTU21D;65641;44.714;37.756;2023-09-18T00:25:44;18.33;59.14
75380;HTU21D;65641;44.714;37.756;2023-09-18T00:26:48;18.34;59.19
75380;HTU21D;65641;44.714;37.756;2023-09-18T00:27:51;18.34;59.13
75380;HTU21D;65641;44.714;37.756;2023-09-18T00:28:55;18.33;59.18
75380;HTU21D;65641;44.714;37.756;2023-09-18T00:29:58;18.33;59.06
75380;HTU21D;65641;44.714;37.756;2023-09-18T00:31:01;18.32;59.22
75380;HTU21D;65641;44.714;37.756;2023-09-18T00:32:06;18.29;59.30
75380;HTU21D;65641;44.714;37.756;2023-09-18T00:33:10;18.28;59.25
75380;HTU21D;65641;44.714;37.756;2023-09-18T00:34:13;18.29;59.17
75380;HTU21D;65641;44.714;37.756;2023-09-18T00:35:17;18.29;59.28
75380;HTU21D;65641;44.714;37.756;2023-09-18T00:36:20;18.28;59.25
75380;HTU21D;65641;44.714;37.756;2023-09-18T00:37:23;18.28;59.21
75380;HTU21D;65641;44.714;37.756;2023-09-18T00:38:26;18.28;59.06
75380;HTU21D;65641;44.714;37.756;2023-09-18T00:39:30;18.27;59.02
75380;HTU21D;65641;44.714;37.756;2023-09-18T00:40:34;18.26;58.99
75380;HTU21D;65641;44.714;37.756;2023-09-18T00:41:38;18.27;59.00
75380;HTU21D;65641;44.714;37.756;2023-09-18T00:42:41;18.28;59.09
75380;HTU21D;65641;44.714;37.756;2023-09-18T00:43:45;18.29;58.99
75380;HTU21D;65641;44.714;37.756;2023-09-18T00:44:48;18.29;59.06
75380;HTU21D;65641;44.714;37.756;2023-09-18T00:45:52;18.29;58.91
75380;HTU21D;65641;44.714;37.756;2023-09-18T00:46:56;18.29;58.91
75380;HTU21D;65641;44.714;37.756;2023-09-18T00:48:00;18.28;58.96
75380;HTU21D;65641;44.714;37.756;2023-09-18T00:49:04;18.29;59.01
75380;HTU21D;65641;44.714;37.756;2023-09-18T00:50:08;18.29;59.02
75380;HTU21D;65641;44.714;37.756;2023-09-18T00:51:14;18.29;58.96
75380;HTU21D;65641;44.714;37.756;2023-09-18T00:52:19;18.29;59.06
75380;HTU21D;65641;44.714;37.756;2023-09-18T00:53:23;18.29;58.98
75380;HTU21D;65641;44.714;37.756;2023-09-18T00:54:28;18.28;59.06
75380;HTU21D;65641;44.714;37.756;2023-09-18T00:55:31;18.29;58.98
75380;HTU21D;65641;44.714;37.756;2023-09-18T00:56:35;18.28;59.04
75380;HTU21D;65641;44.714;37.756;2023-09-18T00:57:39;18.29;59.03
75380;HTU21D;65641;44.714;37.756;2023-09-18T00:58:44;18.28;58.99
75380;HTU21D;65641;44.714;37.756;2023-09-18T00:59:48;18.28;59.00
75380;HTU21D;65641;44.714;37.756;2023-09-18T01:00:52;18.27;58.94
75380;HTU21D;65641;44.714;37.756;2023-09-18T01:01:55;18.27;59.03
75380;HTU21D;65641;44.714;37.756;2023-09-18T01:03:01;18.28;59.03
75380;HTU21D;65641;44.714;37.756;2023-09-18T01:04:05;18.26;58.89
75380;HTU21D;65641;44.714;37.756;2023-09-18T01:05:08;18.26;59.06
75380;HTU21D;65641;44.714;37.756;2023-09-18T01:06:11;18.25;59.09
75380;HTU21D;65641;44.714;37.756;2023-09-18T01:07:15;18.25;59.03
75380;HTU21D;65641;44.714;37.756;2023-09-18T01:08:18;18.25;59.07
75380;HTU21D;65641;44.714;37.756;2023-09-18T01:09:21;18.24;59.03
75380;HTU21D;65641;44.714;37.756;2023-09-18T01:10:32;18.24;59.11
75380;HTU21D;65641;44.714;37.756;2023-09-18T01:11:47;18.24;59.06
75380;HTU21D;65641;44.714;37.756;2023-09-18T01:13:02;18.23;58.93
75380;HTU21D;65641;44.714;37.756;2023-09-18T01:15:22;18.23;59.10
75380;HTU21D;65641;44.714;37.756;2023-09-18T01:16:47;18.22;59.18
75380;HTU21D;65641;44.714;37.756;2023-09-18T01:17:53;18.21;59.07
75380;HTU21D;65641;44.714;37.756;2023-09-18T01:18:57;18.20;59.20
75380;HTU21D;65641;44.714;37.756;2023-09-18T01:20:00;18.22;59.16
75380;HTU21D;65641;44.714;37.756;2023-09-18T01:21:04;18.22;59.01
75380;HTU21D;65641;44.714;37.756;2023-09-18T01:22:09;18.21;59.09
75380;HTU21D;65641;44.714;37.756;2023-09-18T01:23:12;18.20;59.09
75380;HTU21D;65641;44.714;37.756;2023-09-18T01:24:16;18.19;59.07
75380;HTU21D;65641;44.714;37.756;2023-09-18T01:25:19;18.18;59.03
75380;HTU21D;65641;44.714;37.756;2023-09-18T01:26:23;18.18;59.05
75380;HTU21D;65641;44.714;37.756;2023-09-18T01:27:26;18.18;59.18
75380;HTU21D;65641;44.714;37.756;2023-09-18T01:28:29;18.17;59.19
75380;HTU21D;65641;44.714;37.756;2023-09-18T01:29:33;18.15;59.22
75380;HTU21D;65641;44.714;37.756;2023-09-18T01:30:36;18.15;59.22
75380;HTU21D;65641;44.714;37.756;2023-09-18T01:31:41;18.14;59.21
75380;HTU21D;65641;44.714;37.756;2023-09-18T01:32:44;18.13;59.21
75380;HTU21D;65641;44.714;37.756;2023-09-18T01:33:50;18.11;58.96
75380;HTU21D;65641;44.714;37.756;2023-09-18T01:34:56;18.10;59.20
75380;HTU21D;65641;44.714;37.756;2023-09-18T01:36:00;18.09;59.24
75380;HTU21D;65641;44.714;37.756;2023-09-18T01:37:04;18.10;59.26
75380;HTU21D;65641;44.714;37.756;2023-09-18T01:38:08;18.09;59.25
75380;HTU21D;65641;44.714;37.756;2023-09-18T01:39:15;18.08;59.28
75380;HTU21D;65641;44.714;37.756;2023-09-18T01:40:19;18.09;59.21
75380;HTU21D;65641;44.714;37.756;2023-09-18T01:41:23;18.09;59.38
75380;HTU21D;65641;44.714;37.756;2023-09-18T01:42:27;18.08;59.36
75380;HTU21D;65641;44.714;37.756;2023-09-18T01:43:31;18.08;59.36
75380;HTU21D;65641;44.714;37.756;2023-09-18T01:44:36;18.07;59.28
75380;HTU21D;65641;44.714;37.756;2023-09-18T01:45:42;18.05;59.49
75380;HTU21D;65641;44.714;37.756;2023-09-18T01:46:47;18.05;59.30
75380;HTU21D;65641;44.714;37.756;2023-09-18T01:47:52;18.05;59.38
75380;HTU21D;65641;44.714;37.756;2023-09-18T01:48:56;18.04;59.44
75380;HTU21D;65641;44.714;37.756;2023-09-18T01:50:03;18.03;59.34
75380;HTU21D;65641;44.714;37.756;2023-09-18T01:51:13;18.03;59.43
75380;HTU21D;65641;44.714;37.756;2023-09-18T01:52:17;18.02;59.48
75380;HTU21D;65641;44.714;37.756;2023-09-18T01:53:21;18.00;59.41
75380;HTU21D;65641;44.714;37.756;2023-09-18T01:54:25;17.99;59.39
75380;HTU21D;65641;44.714;37.756;2023-09-18T01:55:28;17.97;59.47
75380;HTU21D;65641;44.714;37.756;2023-09-18T01:56:32;17.96;59.48
75380;HTU21D;65641;44.714;37.756;2023-09-18T01:57:36;17.97;59.57
75380;HTU21D;65641;44.714;37.756;2023-09-18T01:58:39;17.97;59.51
75380;HTU21D;65641;44.714;37.756;2023-09-18T01:59:44;17.97;59.63
75380;HTU21D;65641;44.714;37.756;2023-09-18T02:00:49;17.97;59.67
75380;HTU21D;65641;44.714;37.756;2023-09-18T02:01:53;17.95;59.67
75380;HTU21D;65641;44.714;37.756;2023-09-18T02:02:58;17.93;59.59
75380;HTU21D;65641;44.714;37.756;2023-09-18T02:04:22;17.92;59.64
75380;HTU21D;65641;44.714;37.756;2023-09-18T02:05:45;17.91;59.75
75380;HTU21D;65641;44.714;37.756;2023-09-18T02:06:50;17.91;59.62
75380;HTU21D;65641;44.714;37.756;2023-09-18T02:07:54;17.91;59.73
75380;HTU21D;65641;44.714;37.756;2023-09-18T02:08:57;17.89;59.76
75380;HTU21D;65641;44.714;37.756;2023-09-18T02:10:01;17.88;59.77
75380;HTU21D;65641;44.714;37.756;2023-09-18T02:11:06;17.88;59.83
75380;HTU21D;65641;44.714;37.756;2023-09-18T02:12:10;17.87;59.69
75380;HTU21D;65641;44.714;37.756;2023-09-18T02:13:14;17.85;59.74
75380;HTU21D;65641;44.714;37.756;2023-09-18T02:14:19;17.85;59.80
75380;HTU21D;65641;44.714;37.756;2023-09-18T02:15:22;17.84;59.80
75380;HTU21D;65641;44.714;37.756;2023-09-18T02:16:26;17.83;59.87
75380;HTU21D;65641;44.714;37.756;2023-09-18T02:17:30;17.82;59.94
75380;HTU21D;65641;44.714;37.756;2023-09-18T02:18:34;17.82;59.86
75380;HTU21D;65641;44.714;37.756;2023-09-18T02:19:37;17.81;59.88
75380;HTU21D;65641;44.714;37.756;2023-09-18T02:20:41;17.80;59.96
75380;HTU21D;65641;44.714;37.756;2023-09-18T02:21:47;17.80;60.00
75380;HTU21D;65641;44.714;37.756;2023-09-18T02:22:53;17.79;59.98
75380;HTU21D;65641;44.714;37.756;2023-09-18T02:23:57;17.80;60.01
75380;HTU21D;65641;44.714;37.756;2023-09-18T02:25:01;17.78;59.99
75380;HTU21D;65641;44.714;37.756;2023-09-18T02:26:05;17.77;59.93
75380;HTU21D;65641;44.714;37.756;2023-09-18T02:27:08;17.76;60.01
75380;HTU21D;65641;44.714;37.756;2023-09-18T02:28:13;17.75;60.06
75380;HTU21D;65641;44.714;37.756;2023-09-18T02:29:17;17.74;60.12
75380;HTU21D;65641;44.714;37.756;2023-09-18T02:30:21;17.73;60.17
75380;HTU21D;65641;44.714;37.756;2023-09-18T02:31:25;17.72;60.00
75380;HTU21D;65641;44.714;37.756;2023-09-18T02:32:29;17.72;60.18
75380;HTU21D;65641;44.714;37.756;2023-09-18T02:33:33;17.70;60.26
75380;HTU21D;65641;44.714;37.756;2023-09-18T02:34:37;17.69;60.25
75380;HTU21D;65641;44.714;37.756;2023-09-18T02:35:41;17.67;60.22
75380;HTU21D;65641;44.714;37.756;2023-09-18T02:36:46;17.67;60.34
75380;HTU21D;65641;44.714;37.756;2023-09-18T02:37:52;17.65;60.35
75380;HTU21D;65641;44.714;37.756;2023-09-18T02:38:55;17.64;60.35
75380;HTU21D;65641;44.714;37.756;2023-09-18T02:40:01;17.63;60.47
75380;HTU21D;65641;44.714;37.756;2023-09-18T02:41:05;17.63;60.37
75380;HTU21D;65641;44.714;37.756;2023-09-18T02:42:09;17.61;60.51
75380;HTU21D;65641;44.714;37.756;2023-09-18T02:43:13;17.61;60.52
75380;HTU21D;65641;44.714;37.756;2023-09-18T02:44:16;17.60;60.44
75380;HTU21D;65641;44.714;37.756;2023-09-18T02:45:19;17.58;60.46
75380;HTU21D;65641;44.714;37.756;2023-09-18T02:46:23;17.59;60.46
75380;HTU21D;65641;44.714;37.756;2023-09-18T02:47:26;17.58;60.51
75380;HTU21D;65641;44.714;37.756;2023-09-18T02:48:29;17.56;60.53
75380;HTU21D;65641;44.714;37.756;2023-09-18T02:49:33;17.56;60.61
75380;HTU21D;65641;44.714;37.756;2023-09-18T02:50:36;17.56;60.61
75380;HTU21D;65641;44.714;37.756;2023-09-18T02:51:39;17.55;60.67
75380;HTU21D;65641;44.714;37.756;2023-09-18T02:52:43;17.55;60.57
75380;HTU21D;65641;44.714;37.756;2023-09-18T02:53:46;17.54;60.54
75380;HTU21D;65641;44.714;37.756;2023-09-18T02:54:50;17.54;60.63
75380;HTU21D;65641;44.714;37.756;2023-09-18T02:55:55;17.52;60.52
75380;HTU21D;65641;44.714;37.756;2023-09-18T02:56:59;17.53;60.59
75380;HTU21D;65641;44.714;37.756;2023-09-18T02:58:02;17.53;60.64
75380;HTU21D;65641;44.714;37.756;2023-09-18T02:59:06;17.51;60.66
75380;HTU21D;65641;44.714;37.756;2023-09-18T03:00:09;17.50;60.64
75380;HTU21D;65641;44.714;37.756;2023-09-18T03:01:13;17.50;60.66
75380;HTU21D;65641;44.714;37.756;2023-09-18T03:02:16;17.49;60.63
75380;HTU21D;65641;44.714;37.756;2023-09-18T03:03:20;17.49;60.58
75380;HTU21D;65641;44.714;37.756;2023-09-18T03:04:23;17.49;60.62
75380;HTU21D;65641;44.714;37.756;2023-09-18T03:05:27;17.48;60.70
75380;HTU21D;65641;44.714;37.756;2023-09-18T03:06:30;17.49;60.63
75380;HTU21D;65641;44.714;37.756;2023-09-18T03:07:33;17.49;60.73
75380;HTU21D;65641;44.714;37.756;2023-09-18T03:08:37;17.48;60.78
75380;HTU21D;65641;44.714;37.756;2023-09-18T03:09:40;17.47;60.74
75380;HTU21D;65641;44.714;37.756;2023-09-18T03:10:44;17.47;60.70
75380;HTU21D;65641;44.714;37.756;2023-09-18T03:11:48;17.47;60.82
75380;HTU21D;65641;44.714;37.756;2023-09-18T03:12:51;17.48;60.74
75380;HTU21D;65641;44.714;37.756;2023-09-18T03:13:54;17.47;60.81
75380;HTU21D;65641;44.714;37.756;2023-09-18T03:14:58;17.47;60.71
75380;HTU21D;65641;44.714;37.756;2023-09-18T03:16:02;17.47;60.79
75380;HTU21D;65641;44.714;37.756;2023-09-18T03:17:05;17.48;60.77
75380;HTU21D;65641;44.714;37.756;2023-09-18T03:18:08;17.48;60.72
75380;HTU21D;65641;44.714;37.756;2023-09-18T03:19:13;17.49;60.73
75380;HTU21D;65641;44.714;37.756;2023-09-18T03:20:16;17.48;60.74
75380;HTU21D;65641;44.714;37.756;2023-09-18T03:21:20;17.50;60.74
75380;HTU21D;65641;44.714;37.756;2023-09-18T03:22:26;17.49;60.70
75380;HTU21D;65641;44.714;37.756;2023-09-18T03:23:29;17.48;60.70
75380;HTU21D;65641;44.714;37.756;2023-09-18T03:24:32;17.48;60.69
75380;HTU21D;65641;44.714;37.756;2023-09-18T03:25:36;17.49;60.70
75380;HTU21D;65641;44.714;37.756;2023-09-18T03:26:54;17.49;60.70
75380;HTU21D;65641;44.714;37.756;2023-09-18T03:28:00;17.49;60.67
75380;HTU21D;65641;44.714;37.756;2023-09-18T03:29:06;17.49;60.70
75380;HTU21D;65641;44.714;37.756;2023-09-18T03:30:11;17.50;60.65
75380;HTU21D;65641;44.714;37.756;2023-09-18T03:31:20;17.51;60.57
75380;HTU21D;65641;44.714;37.756;2023-09-18T03:32:23;17.50;60.60
75380;HTU21D;65641;44.714;37.756;2023-09-18T03:33:27;17.51;60.54
75380;HTU21D;65641;44.714;37.756;2023-09-18T03:34:30;17.52;60.60
75380;HTU21D;65641;44.714;37.756;2023-09-18T03:35:51;17.52;60.61
75380;HTU21D;65641;44.714;37.756;2023-09-18T03:37:00;17.52;60.53
75380;HTU21D;65641;44.714;37.756;2023-09-18T03:38:04;17.55;60.54
75380;HTU21D;65641;44.714;37.756;2023-09-18T03:39:07;17.56;60.49
75380;HTU21D;65641;44.714;37.756;2023-09-18T03:40:14;17.56;60.43
75380;HTU21D;65641;44.714;37.756;2023-09-18T03:41:17;17.59;60.43
75380;HTU21D;65641;44.714;37.756;2023-09-18T03:42:21;17.59;60.44
75380;HTU21D;65641;44.714;37.756;2023-09-18T03:43:24;17.59;60.41
75380;HTU21D;65641;44.714;37.756;2023-09-18T03:44:28;17.59;60.38
75380;HTU21D;65641;44.714;37.756;2023-09-18T03:45:31;17.61;60.45
75380;HTU21D;65641;44.714;37.756;2023-09-18T03:46:35;17.60;60.46
75380;HTU21D;65641;44.714;37.756;2023-09-18T03:47:40;17.61;60.48
75380;HTU21D;65641;44.714;37.756;2023-09-18T03:48:43;17.63;60.49
75380;HTU21D;65641;44.714;37.756;2023-09-18T03:49:48;17.64;60.42
75380;HTU21D;65641;44.714;37.756;2023-09-18T03:50:51;17.64;60.40
75380;HTU21D;65641;44.714;37.756;2023-09-18T03:51:54;17.67;60.41
75380;HTU21D;65641;44.714;37.756;2023-09-18T03:53:00;17.67;60.34
75380;HTU21D;65641;44.714;37.756;2023-09-18T03:54:04;17.68;60.35
75380;HTU21D;65641;44.714;37.756;2023-09-18T03:55:08;17.70;60.30
75380;HTU21D;65641;44.714;37.756;2023-09-18T03:56:11;17.73;60.27
75380;HTU21D;65641;44.714;37.756;2023-09-18T03:57:16;17.72;60.25
75380;HTU21D;65641;44.714;37.756;2023-09-18T03:58:19;17.74;60.21
75380;HTU21D;65641;44.714;37.756;2023-09-18T03:59:23;17.76;60.18
75380;HTU21D;65641;44.714;37.756;2023-09-18T04:00:26;17.78;60.12
75380;HTU21D;65641;44.714;37.756;2023-09-18T04:01:30;17.79;60.04
75380;HTU21D;65641;44.714;37.756;2023-09-18T04:02:33;17.82;60.00
75380;HTU21D;65641;44.714;37.756;2023-09-18T04:03:37;17.83;59.94
75380;HTU21D;65641;44.714;37.756;2023-09-18T04:04:40;17.84;59.86
75380;HTU21D;65641;44.714;37.756;2023-09-18T04:05:44;17.87;59.87
75380;HTU21D;65641;44.714;37.756;2023-09-18T04:06:48;17.88;59.77
75380;HTU21D;65641;44.714;37.756;2023-09-18T04:07:52;17.90;59.78
75380;HTU21D;65641;44.714;37.756;2023-09-18T04:08:58;17.93;59.69
75380;HTU21D;65641;44.714;37.756;2023-09-18T04:10:02;17.95;59.58
75380;HTU21D;65641;44.714;37.756;2023-09-18T04:11:07;17.96;59.59
75380;HTU21D;65641;44.714;37.756;2023-09-18T04:12:12;17.99;59.46
75380;HTU21D;65641;44.714;37.756;2023-09-18T04:13:16;18.00;59.44
75380;HTU21D;65641;44.714;37.756;2023-09-18T04:14:19;18.04;59.38
75380;HTU21D;65641;44.714;37.756;2023-09-18T04:15:22;18.07;59.31
75380;HTU21D;65641;44.714;37.756;2023-09-18T04:16:27;18.09;59.15
75380;HTU21D;65641;44.714;37.756;2023-09-18T04:17:40;18.11;59.13
75380;HTU21D;65641;44.714;37.756;2023-09-18T04:18:46;18.13;59.03
75380;HTU21D;65641;44.714;37.756;2023-09-18T04:19:49;18.14;58.98
75380;HTU21D;65641;44.714;37.756;2023-09-18T04:20:53;18.17;58.94
75380;HTU21D;65641;44.714;37.756;2023-09-18T04:21:56;18.19;58.82
75380;HTU21D;65641;44.714;37.756;2023-09-18T04:23:24;18.21;58.83
75380;HTU21D;65641;44.714;37.756;2023-09-18T04:24:28;18.24;58.74
75380;HTU21D;65641;44.714;37.756;2023-09-18T04:25:34;18.25;58.67
75380;HTU21D;65641;44.714;37.756;2023-09-18T04:26:38;18.28;58.58
75380;HTU21D;65641;44.714;37.756;2023-09-18T04:27:42;18.33;58.50
75380;HTU21D;65641;44.714;37.756;2023-09-18T04:28:45;18.34;58.46
75380;HTU21D;65641;44.714;37.756;2023-09-18T04:29:49;18.37;58.63
75380;HTU21D;65641;44.714;37.756;2023-09-18T04:30:52;18.39;58.79
75380;HTU21D;65641;44.714;37.756;2023-09-18T04:31:56;18.41;58.93
75380;HTU21D;65641;44.714;37.756;2023-09-18T04:33:02;18.44;59.09
75380;HTU21D;65641;44.714;37.756;2023-09-18T04:34:05;18.46;59.21
75380;HTU21D;65641;44.714;37.756;2023-09-18T04:35:09;18.48;59.25
75380;HTU21D;65641;44.714;37.756;2023-09-18T04:36:14;18.51;59.35
75380;HTU21D;65641;44.714;37.756;2023-09-18T04:37:17;18.53;59.25
75380;HTU21D;65641;44.714;37.756;2023-09-18T04:38:20;18.56;59.31
75380;HTU21D;65641;44.714;37.756;2023-09-18T04:39:24;18.56;59.21
75380;HTU21D;65641;44.714;37.756;2023-09-18T04:40:28;18.58;59.21
75380;HTU21D;65641;44.714;37.756;2023-09-18T04:41:35;18.62;59.17
75380;HTU21D;65641;44.714;37.756;2023-09-18T04:42:40;18.65;59.12
75380;HTU21D;65641;44.714;37.756;2023-09-18T04:43:43;18.67;59.03
75380;HTU21D;65641;44.714;37.756;2023-09-18T04:44:47;18.69;59.03
75380;HTU21D;65641;44.714;37.756;2023-09-18T04:45:50;18.69;59.03
75380;HTU21D;65641;44.714;37.756;2023-09-18T04:46:54;18.71;58.93
75380;HTU21D;65641;44.714;37.756;2023-09-18T04:47:58;18.72;58.87
75380;HTU21D;65641;44.714;37.756;2023-09-18T04:49:02;18.74;58.85
75380;HTU21D;65641;44.714;37.756;2023-09-18T04:50:06;18.77;58.83
75380;HTU21D;65641;44.714;37.756;2023-09-18T04:51:16;18.81;58.74
75380;HTU21D;65641;44.714;37.756;2023-09-18T04:52:19;18.82;58.67
75380;HTU21D;65641;44.714;37.756;2023-09-18T04:53:22;18.85;58.65
75380;HTU21D;65641;44.714;37.756;2023-09-18T04:54:26;18.85;58.55
75380;HTU21D;65641;44.714;37.756;2023-09-18T04:55:29;18.88;58.50
75380;HTU21D;65641;44.714;37.756;2023-09-18T04:56:33;18.91;58.46
75380;HTU21D;65641;44.714;37.756;2023-09-18T04:57:37;18.94;58.38
75380;HTU21D;65641;44.714;37.756;2023-09-18T04:58:41;18.96;58.33
75380;HTU21D;65641;44.714;37.756;2023-09-18T04:59:44;18.99;58.17
75380;HTU21D;65641;44.714;37.756;2023-09-18T05:00:54;18.99;58.13
75380;HTU21D;65641;44.714;37.756;2023-09-18T05:01:57;19.03;58.01
75380;HTU21D;65641;44.714;37.756;2023-09-18T05:03:01;19.07;57.87
75380;HTU21D;65641;44.714;37.756;2023-09-18T05:04:06;19.08;57.76
75380;HTU21D;65641;44.714;37.756;2023-09-18T05:05:09;19.10;57.67
75380;HTU21D;65641;44.714;37.756;2023-09-18T05:06:13;19.12;57.53
75380;HTU21D;65641;44.714;37.756;2023-09-18T05:07:17;19.14;57.45
75380;HTU21D;65641;44.714;37.756;2023-09-18T05:08:23;19.15;57.42
75380;HTU21D;65641;44.714;37.756;2023-09-18T05:09:26;19.17;57.34
75380;HTU21D;65641;44.714;37.756;2023-09-18T05:10:30;19.21;57.28
75380;HTU21D;65641;44.714;37.756;2023-09-18T05:11:33;19.22;57.21
75380;HTU21D;65641;44.714;37.756;2023-09-18T05:12:40;19.25;57.10
75380;HTU21D;65641;44.714;37.756;2023-09-18T05:13:46;19.26;56.99
75380;HTU21D;65641;44.714;37.756;2023-09-18T05:14:49;19.26;56.97
75380;HTU21D;65641;44.714;37.756;2023-09-18T05:15:53;19.28;56.89
75380;HTU21D;65641;44.714;37.756;2023-09-18T05:16:57;19.28;56.87
75380;HTU21D;65641;44.714;37.756;2023-09-18T05:18:00;19.31;56.78
75380;HTU21D;65641;44.714;37.756;2023-09-18T05:19:04;19.33;56.74
75380;HTU21D;65641;44.714;37.756;2023-09-18T05:20:08;19.33;56.65
75380;HTU21D;65641;44.714;37.756;2023-09-18T05:21:13;19.38;56.61
75380;HTU21D;65641;44.714;37.756;2023-09-18T05:22:16;19.39;56.59
75380;HTU21D;65641;44.714;37.756;2023-09-18T05:23:19;19.39;56.57
75380;HTU21D;65641;44.714;37.756;2023-09-18T05:24:23;19.42;56.52
75380;HTU21D;65641;44.714;37.756;2023-09-18T05:25:30;19.43;56.38
75380;HTU21D;65641;44.714;37.756;2023-09-18T05:26:35;19.44;56.40
75380;HTU21D;65641;44.714;37.756;2023-09-18T05:27:38;19.46;56.37
75380;HTU21D;65641;44.714;37.756;2023-09-18T05:28:47;19.47;56.32
75380;HTU21D;65641;44.714;37.756;2023-09-18T05:29:50;19.50;56.33
75380;HTU21D;65641;44.714;37.756;2023-09-18T05:30:54;19.52;56.30
75380;HTU21D;65641;44.714;37.756;2023-09-18T05:31:58;19.53;56.27
75380;HTU21D;65641;44.714;37.756;2023-09-18T05:33:02;19.55;56.31
75380;HTU21D;65641;44.714;37.756;2023-09-18T05:34:10;19.58;56.25
75380;HTU21D;65641;44.714;37.756;2023-09-18T05:35:14;19.60;56.26
75380;HTU21D;65641;44.714;37.756;2023-09-18T05:36:17;19.62;56.21
75380;HTU21D;65641;44.714;37.756;2023-09-18T05:37:21;19.65;56.26
75380;HTU21D;65641;44.714;37.756;2023-09-18T05:38:24;19.66;56.20
75380;HTU21D;65641;44.714;37.756;2023-09-18T05:39:27;19.67;56.19
75380;HTU21D;65641;44.714;37.756;2023-09-18T05:40:32;19.69;56.17
75380;HTU21D;65641;44.714;37.756;2023-09-18T05:41:35;19.71;56.13
75380;HTU21D;65641;44.714;37.756;2023-09-18T05:42:41;19.73;56.10
75380;HTU21D;65641;44.714;37.756;2023-09-18T05:43:48;19.76;56.07
75380;HTU21D;65641;44.714;37.756;2023-09-18T05:44:52;19.79;56.02
75380;HTU21D;65641;44.714;37.756;2023-09-18T05:45:55;19.81;55.98
75380;HTU21D;65641;44.714;37.756;2023-09-18T05:46:59;19.83;55.93
75380;HTU21D;65641;44.714;37.756;2023-09-18T05:48:03;19.85;55.88
75380;HTU21D;65641;44.714;37.756;2023-09-18T05:49:08;19.86;55.78
75380;HTU21D;65641;44.714;37.756;2023-09-18T05:50:12;19.89;55.67
75380;HTU21D;65641;44.714;37.756;2023-09-18T05:51:20;19.90;55.61
75380;HTU21D;65641;44.714;37.756;2023-09-18T05:52:23;19.95;55.58
75380;HTU21D;65641;44.714;37.756;2023-09-18T05:53:28;19.98;55.52
75380;HTU21D;65641;44.714;37.756;2023-09-18T05:54:33;20.00;55.42
75380;HTU21D;65641;44.714;37.756;2023-09-18T05:55:36;20.02;55.41
75380;HTU21D;65641;44.714;37.756;2023-09-18T05:56:40;20.03;55.42
75380;HTU21D;65641;44.714;37.756;2023-09-18T05:57:44;20.05;55.37
75380;HTU21D;65641;44.714;37.756;2023-09-18T05:58:47;20.07;55.36
75380;HTU21D;65641;44.714;37.756;2023-09-18T05:59:51;20.11;55.31
75380;HTU21D;65641;44.714;37.756;2023-09-18T06:00:54;20.12;55.26
75380;HTU21D;65641;44.714;37.756;2023-09-18T06:01:58;20.14;55.22
75380;HTU21D;65641;44.714;37.756;2023-09-18T06:03:02;20.16;55.14
75380;HTU21D;65641;44.714;37.756;2023-09-18T06:04:06;20.18;55.10
75380;HTU21D;65641;44.714;37.756;2023-09-18T06:05:10;20.21;55.05
75380;HTU21D;65641;44.714;37.756;2023-09-18T06:06:15;20.24;55.00
75380;HTU21D;65641;44.714;37.756;2023-09-18T06:07:18;20.26;54.94
75380;HTU21D;65641;44.714;37.756;2023-09-18T06:08:22;20.29;54.90
75380;HTU21D;65641;44.714;37.756;2023-09-18T06:09:29;20.31;54.85
75380;HTU21D;65641;44.714;37.756;2023-09-18T06:10:33;20.34;54.77
75380;HTU21D;65641;44.714;37.756;2023-09-18T06:11:37;20.35;54.72
75380;HTU21D;65641;44.714;37.756;2023-09-18T06:12:41;20.36;54.66
75380;HTU21D;65641;44.714;37.756;2023-09-18T06:13:44;20.39;54.63
75380;HTU21D;65641;44.714;37.756;2023-09-18T06:14:51;20.40;54.57
75380;HTU21D;65641;44.714;37.756;2023-09-18T06:15:55;20.43;54.46
75380;HTU21D;65641;44.714;37.756;2023-09-18T06:17:02;20.45;54.41
75380;HTU21D;65641;44.714;37.756;2023-09-18T06:18:08;20.47;54.36
75380;HTU21D;65641;44.714;37.756;2023-09-18T06:19:12;20.48;54.32
75380;HTU21D;65641;44.714;37.756;2023-09-18T06:20:16;20.50;54.27
75380;HTU21D;65641;44.714;37.756;2023-09-18T06:21:20;20.51;54.16
75380;HTU21D;65641;44.714;37.756;2023-09-18T06:22:23;20.54;54.10
75380;HTU21D;65641;44.714;37.756;2023-09-18T06:23:27;20.55;54.06
75380;HTU21D;65641;44.714;37.756;2023-09-18T06:24:31;20.57;53.98
75380;HTU21D;65641;44.714;37.756;2023-09-18T06:25:35;20.59;53.89
75380;HTU21D;65641;44.714;37.756;2023-09-18T06:26:38;20.60;53.88
75380;HTU21D;65641;44.714;37.756;2023-09-18T06:27:42;20.62;53.83
75380;HTU21D;65641;44.714;37.756;2023-09-18T06:28:46;20.63;53.74
75380;HTU21D;65641;44.714;37.756;2023-09-18T06:29:54;20.66;53.68
75380;HTU21D;65641;44.714;37.756;2023-09-18T06:30:57;20.70;53.60
75380;HTU21D;65641;44.714;37.756;2023-09-18T06:32:01;20.73;53.46
75380;HTU21D;65641;44.714;37.756;2023-09-18T06:33:05;20.77;53.36
75380;HTU21D;65641;44.714;37.756;2023-09-18T06:34:09;20.78;53.30
75380;HTU21D;65641;44.714;37.756;2023-09-18T06:35:12;20.80;53.22
75380;HTU21D;65641;44.714;37.756;2023-09-18T06:36:16;20.81;53.16